Butterfly — C6UP2 — position and weather

sailwx.info

Track history (hours):
 
Tides and Currents Weather Stations Pressure Air Temp Water Temp Dewpoint Dewpoint Depression Visibility Wind Speed Wind Dir Waves Ship Positions

Butterfly

Last reported at 2015-May-21 21:09 UTC. Time now 2015-May-25 03:29 UTC.
Position N 17°03' W 062°20'.

Length 182 m; draft 6.8 m.

Type: Tanker. MMSI: 311985000.

Date/timePositionNaut miles runAvg speedWind from/ knotsBaromVisibWave heightAir tempDewpointWater temp
2015-May-21 21:09N 17°03' W 062°20'813.1
2015-May-21 20:33N 17°05' W 062°12'20 0.6
2015-May-20 12:23N 17°09' W 061°52'2 0.1
2015-May-19 14:33N 17°09' W 061°54'0 0.0
2015-May-19 13:33N 17°09' W 061°54'0 0.0
2015-May-19 12:33N 17°09' W 061°54'6710.5
2015-May-19 06:07N 17°42' W 062°55'712.5
2015-May-19 05:33N 17°45' W 063°02'1010.1
2015-May-19 04:32N 17°50' W 063°11'1312.7
2015-May-19 03:33N 17°58' W 063°22'1313.0
2015-May-19 02:33N 18°08' W 063°30'1312.4
2015-May-19 01:31N 18°19' W 063°37'  
Track history (hours):
 
Tides and Currents Weather Stations Pressure Air Temp Water Temp Dewpoint Dewpoint Depression Visibility Wind Speed Wind Dir Waves Ship Positions

Butterfly

Last reported at 2015-May-21 21:09 UTC. Time now 2015-May-25 03:29 UTC.
Position N 17°03' W 062°20'.

Length 182 m; draft 6.8 m.

Type: Tanker. MMSI: 311985000.

Date/timePositionNaut miles runAvg speedWind from/ knotsBaromVisibWave heightAir tempDewpointWater temp
2015-May-21 21:09N 17°03' W 062°20'813.1
2015-May-21 20:33N 17°05' W 062°12'20 0.6
2015-May-20 12:23N 17°09' W 061°52'2 0.1
2015-May-19 14:33N 17°09' W 061°54'0 0.0
2015-May-19 13:33N 17°09' W 061°54'0 0.0
2015-May-19 12:33N 17°09' W 061°54'6710.5
2015-May-19 06:07N 17°42' W 062°55'712.5
2015-May-19 05:33N 17°45' W 063°02'1010.1
2015-May-19 04:32N 17°50' W 063°11'1312.7
2015-May-19 03:33N 17°58' W 063°22'1313.0
2015-May-19 02:33N 18°08' W 063°30'1312.4
2015-May-19 01:31N 18°19' W 063°37'  

Dump ship's entire track history